Time;durP1;ratioP1;P1;durP2;ratioP2;P2;SDS_P1;SDS_P2;PMS_P1;PMS_P2;Temp;Humidity;BMP_temperature;BMP_pressure;BME280_temperature;BME280_humidity;BME280_pressure;Samples;Min_cycle;Max_cycle;Signal;HPM_P1;HPM_P2
2021/07/05 00:01:16;;;;;;;13.52;4.68;;;;;;;;;;5109573;28;20126;-65
2021/07/05 00:03:44;;;;;;;13.82;4.10;;;;;;;;;;5110075;28;20027;-65
2021/07/05 00:06:10;;;;;;;11.00;4.80;;;;;;;;;;5088861;28;20050;-65
2021/07/05 00:08:36;;;;;;;12.63;4.85;;;;;;;;;;5110184;28;20016;-65
2021/07/05 00:11:02;;;;;;;19.10;4.85;;;;;;;;;;5107968;28;20040;-65
2021/07/05 00:13:29;;;;;;;15.75;5.53;;;;;;;;;;5109850;28;20043;-65
2021/07/05 00:15:55;;;;;;;13.75;5.03;;;;;;;;;;5109290;28;20035;-65
2021/07/05 00:18:21;;;;;;;20.05;5.60;;;;;;;;;;5109359;28;20521;-65
2021/07/05 00:20:47;;;;;;;16.20;5.88;;;;;;;;;;5108651;28;20055;-65
2021/07/05 00:23:14;;;;;;;19.17;4.95;;;;;;;;;;5109410;28;20076;-65
2021/07/05 00:25:40;;;;;;;15.15;5.72;;;;;;;;;;5089618;28;20024;-65
2021/07/05 00:28:07;;;;;;;16.38;5.50;;;;;;;;;;5109843;28;20035;-65
2021/07/05 00:30:33;;;;;;;17.73;6.47;;;;;;;;;;5107851;28;20595;-65
2021/07/05 00:32:59;;;;;;;14.13;4.97;;;;;;;;;;5109021;28;20541;-65
2021/07/05 00:35:26;;;;;;;16.85;6.20;;;;;;;;;;5109728;28;20027;-65
2021/07/05 00:37:52;;;;;;;20.23;5.70;;;;;;;;;;5109419;28;20024;-65
2021/07/05 00:40:19;;;;;;;19.42;6.32;;;;;;;;;;5107708;28;20010;-65
2021/07/05 00:42:45;;;;;;;21.02;6.75;;;;;;;;;;5109738;28;20028;-65
2021/07/05 00:45:12;;;;;;;18.02;5.57;;;;;;;;;;5090234;28;20103;-65
2021/07/05 00:47:38;;;;;;;20.52;5.60;;;;;;;;;;5089649;28;20035;-64
2021/07/05 00:50:05;;;;;;;18.40;6.20;;;;;;;;;;5107288;28;20055;-65
2021/07/05 00:52:32;;;;;;;20.02;7.90;;;;;;;;;;5108730;28;20061;-64
2021/07/05 00:54:58;;;;;;;20.95;6.13;;;;;;;;;;5093031;28;20028;-65
2021/07/05 00:57:25;;;;;;;22.98;6.95;;;;;;;;;;5094152;28;20076;-65
2021/07/05 00:59:52;;;;;;;27.02;6.68;;;;;;;;;;5111811;28;20011;-65
2021/07/05 01:02:18;;;;;;;19.30;7.25;;;;;;;;;;5094670;28;20039;-65
2021/07/05 01:04:45;;;;;;;26.10;6.30;;;;;;;;;;5093708;28;20391;-65
2021/07/05 01:07:12;;;;;;;18.10;7.22;;;;;;;;;;5094294;28;20468;-65
2021/07/05 01:09:38;;;;;;;17.05;7.18;;;;;;;;;;5111407;28;20023;-65
2021/07/05 01:12:05;;;;;;;27.55;6.60;;;;;;;;;;5113302;28;20042;-65
2021/07/05 01:14:31;;;;;;;28.33;7.78;;;;;;;;;;5113155;28;20042;-65
2021/07/05 01:16:57;;;;;;;27.00;7.60;;;;;;;;;;5090900;28;20027;-65
2021/07/05 01:19:23;;;;;;;26.10;7.45;;;;;;;;;;5092738;28;20039;-65
2021/07/05 01:21:50;;;;;;;16.92;6.32;;;;;;;;;;5094402;28;20042;-65
2021/07/05 01:24:16;;;;;;;22.23;8.02;;;;;;;;;;5112220;28;20032;-65
2021/07/05 01:26:42;;;;;;;17.80;6.28;;;;;;;;;;5112136;28;20608;-65
2021/07/05 01:29:08;;;;;;;15.43;6.32;;;;;;;;;;5111047;28;20024;-66
2021/07/05 01:31:35;;;;;;;18.45;7.10;;;;;;;;;;5112203;28;20027;-65
2021/07/05 01:34:01;;;;;;;21.08;7.53;;;;;;;;;;5112409;28;20122;-65
2021/07/05 01:36:27;;;;;;;16.83;6.65;;;;;;;;;;5112325;28;20055;-65
2021/07/05 01:38:53;;;;;;;17.25;7.07;;;;;;;;;;5111293;28;20031;-65
2021/07/05 01:41:20;;;;;;;18.02;6.88;;;;;;;;;;5111588;28;20060;-65
2021/07/05 01:43:46;;;;;;;20.73;7.45;;;;;;;;;;5093362;28;20051;-65
2021/07/05 01:46:12;;;;;;;24.83;6.60;;;;;;;;;;5111380;28;20031;-65
2021/07/05 01:48:39;;;;;;;22.90;6.95;;;;;;;;;;5111933;28;20024;-65
2021/07/05 01:51:05;;;;;;;22.95;6.93;;;;;;;;;;5110664;28;20024;-65
2021/07/05 01:53:31;;;;;;;21.50;7.45;;;;;;;;;;5093606;28;20102;-65
2021/07/05 01:55:57;;;;;;;22.95;6.95;;;;;;;;;;5111786;28;20062;-65
2021/07/05 01:58:23;;;;;;;23.70;8.20;;;;;;;;;;5112218;28;20127;-65
2021/07/05 02:00:50;;;;;;;24.90;8.20;;;;;;;;;;5110795;28;20087;-65
2021/07/05 02:03:17;;;;;;;21.75;7.68;;;;;;;;;;5111606;28;20020;-65
2021/07/05 02:05:44;;;;;;;20.92;7.35;;;;;;;;;;5110836;28;20248;-65
2021/07/05 02:08:12;;;;;;;22.55;7.25;;;;;;;;;;5111886;28;20502;-65
2021/07/05 02:10:39;;;;;;;21.65;7.32;;;;;;;;;;5110188;28;20024;-65
2021/07/05 02:13:13;;;;;;;21.95;7.43;;;;;;;;;;5092677;28;20051;-65
2021/07/05 02:15:40;;;;;;;21.75;7.13;;;;;;;;;;5111830;28;20024;-65
2021/07/05 02:18:06;;;;;;;28.13;8.30;;;;;;;;;;5111494;28;20035;-65
2021/07/05 02:20:33;;;;;;;24.15;7.75;;;;;;;;;;5110262;28;20016;-65
2021/07/05 02:23:00;;;;;;;30.92;9.02;;;;;;;;;;5111220;28;20495;-65
2021/07/05 02:25:27;;;;;;;22.73;7.50;;;;;;;;;;5111031;28;20042;-65
2021/07/05 02:27:54;;;;;;;23.73;8.23;;;;;;;;;;5109212;28;20088;-65
2021/07/05 02:30:22;;;;;;;22.65;8.60;;;;;;;;;;5110246;28;20011;-65
2021/07/05 02:32:48;;;;;;;22.92;6.82;;;;;;;;;;5111369;28;20023;-65
2021/07/05 02:35:16;;;;;;;20.50;7.25;;;;;;;;;;5111010;28;20023;-65
2021/07/05 02:37:42;;;;;;;23.83;8.27;;;;;;;;;;5110965;28;20106;-65
2021/07/05 02:40:10;;;;;;;21.48;8.25;;;;;;;;;;5109849;28;20032;-65
2021/07/05 02:42:36;;;;;;;19.95;6.82;;;;;;;;;;5111658;28;20028;-65
2021/07/05 02:45:06;;;;;;;20.67;7.18;;;;;;;;;;5111033;28;20019;-65
2021/07/05 02:47:32;;;;;;;20.00;7.45;;;;;;;;;;5111085;28;20016;-65
2021/07/05 02:49:58;;;;;;;29.08;8.35;;;;;;;;;;5108481;28;20020;-64
2021/07/05 02:52:24;;;;;;;22.58;7.47;;;;;;;;;;5110658;28;20039;-65
2021/07/05 02:54:50;;;;;;;19.98;7.40;;;;;;;;;;5110292;28;20028;-65
2021/07/05 02:57:29;;;;;;;18.95;7.93;;;;;;;;;;5110557;28;20027;-65
2021/07/05 03:00:01;;;;;;;26.27;6.95;;;;;;;;;;5108155;28;20055;-65
2021/07/05 03:02:29;;;;;;;20.27;7.88;;;;;;;;;;5110847;28;20080;-65
2021/07/05 03:04:55;;;;;;;23.17;7.93;;;;;;;;;;5089715;28;20482;-65
2021/07/05 03:07:21;;;;;;;17.05;5.97;;;;;;;;;;5111189;28;20019;-65
2021/07/05 03:09:47;;;;;;;25.27;7.80;;;;;;;;;;5109158;28;20024;-65
2021/07/05 03:12:13;;;;;;;19.92;6.55;;;;;;;;;;5092056;28;20042;-65
2021/07/05 03:14:39;;;;;;;24.20;7.22;;;;;;;;;;5110528;28;20058;-65
2021/07/05 03:17:05;;;;;;;22.23;6.60;;;;;;;;;;5109054;28;20050;-65
2021/07/05 03:19:31;;;;;;;17.90;6.85;;;;;;;;;;5107791;28;20023;-65
2021/07/05 03:21:57;;;;;;;16.40;6.25;;;;;;;;;;5111272;27;20034;-65
2021/07/05 03:24:23;;;;;;;25.67;6.60;;;;;;;;;;5108672;28;20031;-65
2021/07/05 03:26:49;;;;;;;18.02;6.38;;;;;;;;;;5109968;28;20039;-65
2021/07/05 03:29:15;;;;;;;25.15;6.50;;;;;;;;;;5108660;28;20062;-65
2021/07/05 03:31:41;;;;;;;12.95;5.35;;;;;;;;;;5091446;28;20024;-65
2021/07/05 03:34:07;;;;;;;18.98;7.25;;;;;;;;;;5110128;28;20073;-65
2021/07/05 03:36:33;;;;;;;20.70;6.00;;;;;;;;;;5110027;28;20054;-65
2021/07/05 03:38:59;;;;;;;18.55;7.40;;;;;;;;;;5109248;28;20032;-65
2021/07/05 03:41:25;;;;;;;21.13;5.85;;;;;;;;;;5091425;28;20068;-65
2021/07/05 03:43:51;;;;;;;15.98;5.60;;;;;;;;;;5110059;28;20023;-65
2021/07/05 03:46:17;;;;;;;21.15;5.82;;;;;;;;;;5110047;28;20552;-65
2021/07/05 03:48:44;;;;;;;20.00;7.32;;;;;;;;;;5109715;28;20383;-65
2021/07/05 03:51:10;;;;;;;13.77;5.32;;;;;;;;;;5108562;28;20071;-65
2021/07/05 03:53:36;;;;;;;16.17;5.63;;;;;;;;;;5109481;28;20497;-65
2021/07/05 03:56:03;;;;;;;18.58;6.22;;;;;;;;;;5109061;28;20563;-65
2021/07/05 03:58:30;;;;;;;22.48;6.53;;;;;;;;;;5110324;28;20111;-65
2021/07/05 04:00:59;;;;;;;14.98;5.57;;;;;;;;;;5108126;28;20074;-65
2021/07/05 04:03:25;;;;;;;17.50;6.70;;;;;;;;;;5107317;28;20024;-66
2021/07/05 04:05:52;;;;;;;15.23;5.75;;;;;;;;;;5090436;28;20023;-65
2021/07/05 04:08:20;;;;;;;16.00;6.10;;;;;;;;;;5109605;28;20152;-65
2021/07/05 04:10:46;;;;;;;20.42;6.32;;;;;;;;;;5107881;28;20099;-65
2021/07/05 04:13:13;;;;;;;17.45;6.28;;;;;;;;;;5110276;28;20059;-65
2021/07/05 04:15:39;;;;;;;23.25;6.30;;;;;;;;;;5109539;28;20016;-65
2021/07/05 04:18:05;;;;;;;24.60;6.82;;;;;;;;;;5090755;28;20035;-65
2021/07/05 04:20:32;;;;;;;14.63;5.88;;;;;;;;;;5108067;28;20441;-65
2021/07/05 04:22:58;;;;;;;21.13;6.80;;;;;;;;;;5109020;28;20023;-65
2021/07/05 04:25:25;;;;;;;22.08;7.45;;;;;;;;;;5107055;28;20039;-65
2021/07/05 04:27:51;;;;;;;26.23;7.70;;;;;;;;;;5090352;28;20110;-65
2021/07/05 04:30:20;;;;;;;16.52;5.65;;;;;;;;;;5091526;28;20024;-65
2021/07/05 04:32:46;;;;;;;17.33;6.00;;;;;;;;;;5094645;28;20049;-65
2021/07/05 04:35:14;;;;;;;17.67;6.72;;;;;;;;;;5089902;28;20046;-66
2021/07/05 04:37:41;;;;;;;19.25;6.70;;;;;;;;;;5108661;28;20509;-65
2021/07/05 04:40:11;;;;;;;18.88;6.60;;;;;;;;;;5111316;28;20114;-65
2021/07/05 04:42:37;;;;;;;19.08;6.32;;;;;;;;;;5110049;28;20028;-65
2021/07/05 04:45:05;;;;;;;22.33;7.00;;;;;;;;;;5110701;28;20023;-66
2021/07/05 04:47:31;;;;;;;19.35;6.03;;;;;;;;;;5112406;28;20023;-65
2021/07/05 04:49:57;;;;;;;14.95;5.20;;;;;;;;;;5106635;28;20556;-65
2021/07/05 04:52:23;;;;;;;20.45;6.47;;;;;;;;;;5110255;28;20045;-65
2021/07/05 04:54:49;;;;;;;15.32;5.90;;;;;;;;;;5108357;28;20015;-66
2021/07/05 04:57:15;;;;;;;15.75;5.53;;;;;;;;;;5109767;28;20031;-65
2021/07/05 04:59:41;;;;;;;14.00;5.47;;;;;;;;;;5110771;28;20518;-65
2021/07/05 05:02:07;;;;;;;21.15;6.50;;;;;;;;;;5110489;28;20035;-66
2021/07/05 05:04:33;;;;;;;15.60;4.95;;;;;;;;;;5111409;28;20031;-65
2021/07/05 05:07:00;;;;;;;19.52;5.90;;;;;;;;;;5108118;28;20020;-65
2021/07/05 05:09:26;;;;;;;15.02;5.18;;;;;;;;;;5086539;28;20032;-65
2021/07/05 05:11:52;;;;;;;16.58;5.95;;;;;;;;;;5105236;28;20054;-65
2021/07/05 05:14:19;;;;;;;14.05;5.50;;;;;;;;;;5109840;28;20110;-64
2021/07/05 05:16:45;;;;;;;11.73;4.60;;;;;;;;;;5111390;28;20031;-65
2021/07/05 05:19:11;;;;;;;14.98;5.25;;;;;;;;;;5108031;28;20031;-65
2021/07/05 05:21:38;;;;;;;14.35;4.72;;;;;;;;;;5116957;27;20034;-64
2021/07/05 05:24:04;;;;;;;18.17;5.70;;;;;;;;;;5118585;27;20029;-64
2021/07/05 05:26:30;;;;;;;21.80;5.28;;;;;;;;;;5113405;28;20043;-64
2021/07/05 05:28:57;;;;;;;20.83;5.43;;;;;;;;;;5110552;28;20016;-65
2021/07/05 05:31:23;;;;;;;14.90;5.15;;;;;;;;;;5112274;28;20016;-65
2021/07/05 05:33:49;;;;;;;19.00;5.18;;;;;;;;;;5094411;28;20054;-65
2021/07/05 05:36:15;;;;;;;15.60;5.00;;;;;;;;;;5113551;28;20049;-65
2021/07/05 05:38:46;;;;;;;18.23;5.90;;;;;;;;;;5113083;28;20023;-65
2021/07/05 05:41:12;;;;;;;21.95;5.78;;;;;;;;;;5109305;28;20023;-65
2021/07/05 05:43:38;;;;;;;15.57;5.88;;;;;;;;;;5108541;28;20011;-65
2021/07/05 05:46:04;;;;;;;18.13;5.13;;;;;;;;;;5112189;28;20023;-64
2021/07/05 05:48:31;;;;;;;21.75;5.10;;;;;;;;;;5111558;28;20019;-65
2021/07/05 05:50:58;;;;;;;18.88;5.70;;;;;;;;;;5106902;28;20522;-65
2021/07/05 05:53:24;;;;;;;19.42;5.35;;;;;;;;;;5109101;28;20031;-65
2021/07/05 05:55:51;;;;;;;19.70;6.32;;;;;;;;;;5110366;28;20022;-65
2021/07/05 05:58:17;;;;;;;16.02;5.60;;;;;;;;;;5100998;28;20097;-65
2021/07/05 06:00:43;;;;;;;15.70;5.05;;;;;;;;;;5090511;28;20034;-65
2021/07/05 06:03:10;;;;;;;22.00;5.60;;;;;;;;;;5115105;27;20031;-65
2021/07/05 06:05:36;;;;;;;19.80;6.05;;;;;;;;;;5129255;27;20157;-66
2021/07/05 06:08:02;;;;;;;18.65;5.85;;;;;;;;;;5112304;28;20028;-65
2021/07/05 06:10:28;;;;;;;17.92;7.07;;;;;;;;;;5107971;28;20027;-65
2021/07/05 06:12:56;;;;;;;18.42;5.90;;;;;;;;;;5112169;28;20399;-65
2021/07/05 06:15:23;;;;;;;23.92;6.97;;;;;;;;;;5112332;28;20027;-66
2021/07/05 06:17:49;;;;;;;16.10;5.97;;;;;;;;;;5111829;28;20495;-66
2021/07/05 06:20:16;;;;;;;17.48;5.72;;;;;;;;;;5109816;28;20114;-65
2021/07/05 06:22:46;;;;;;;16.70;5.90;;;;;;;;;;5111716;28;20019;-66
2021/07/05 06:25:12;;;;;;;17.13;5.47;;;;;;;;;;5112282;28;20105;-66
2021/07/05 06:27:38;;;;;;;25.17;6.20;;;;;;;;;;5112148;28;20028;-66
2021/07/05 06:30:05;;;;;;;24.08;5.78;;;;;;;;;;5108933;28;20498;-66
2021/07/05 06:32:31;;;;;;;18.77;5.65;;;;;;;;;;5110222;27;20028;-66
2021/07/05 06:34:58;;;;;;;17.50;5.22;;;;;;;;;;5112340;28;20023;-66
2021/07/05 06:37:24;;;;;;;15.85;7.00;;;;;;;;;;5094118;28;20028;-66
2021/07/05 06:39:50;;;;;;;15.02;5.72;;;;;;;;;;5108690;28;20068;-66
2021/07/05 06:42:16;;;;;;;16.65;5.47;;;;;;;;;;5112068;28;20031;-66
2021/07/05 06:44:42;;;;;;;14.98;5.13;;;;;;;;;;5111011;28;20023;-66
2021/07/05 06:47:08;;;;;;;13.15;4.43;;;;;;;;;;5112496;28;20029;-66
2021/07/05 06:49:34;;;;;;;18.92;4.80;;;;;;;;;;5090611;28;20043;-66
2021/07/05 06:52:00;;;;;;;16.83;4.32;;;;;;;;;;5099382;28;20128;-66
2021/07/05 06:54:26;;;;;;;14.40;5.28;;;;;;;;;;5093803;28;20027;-66
2021/07/05 06:56:52;;;;;;;15.27;4.65;;;;;;;;;;5112093;28;20024;-65
2021/07/05 06:59:18;;;;;;;29.45;5.70;;;;;;;;;;5108386;28;20030;-65
2021/07/05 07:01:45;;;;;;;14.30;5.65;;;;;;;;;;5111591;28;20069;-66
2021/07/05 07:04:11;;;;;;;17.05;4.95;;;;;;;;;;5112148;28;20023;-66
2021/07/05 07:06:37;;;;;;;13.73;4.45;;;;;;;;;;5111585;28;20561;-66
2021/07/05 07:09:04;;;;;;;17.85;4.68;;;;;;;;;;5090512;28;20243;-66
2021/07/05 07:11:30;;;;;;;19.92;4.88;;;;;;;;;;5110281;28;20261;-66
2021/07/05 07:13:56;;;;;;;16.75;5.05;;;;;;;;;;5111929;28;20479;-66
2021/07/05 07:16:24;;;;;;;15.38;5.10;;;;;;;;;;5106354;28;20111;-65
2021/07/05 07:19:16;;;;;;;17.25;5.40;;;;;;;;;;5105633;28;20020;-66
2021/07/05 07:21:42;;;;;;;15.73;4.45;;;;;;;;;;5110151;28;20031;-66
2021/07/05 07:24:08;;;;;;;20.20;5.18;;;;;;;;;;5091742;27;20397;-66
2021/07/05 07:26:34;;;;;;;22.83;5.47;;;;;;;;;;5111557;28;20027;-66
2021/07/05 07:29:00;;;;;;;15.02;5.30;;;;;;;;;;5109081;28;20027;-66
2021/07/05 07:31:26;;;;;;;12.73;4.47;;;;;;;;;;5114662;27;20019;-66
2021/07/05 07:33:52;;;;;;;13.65;5.35;;;;;;;;;;5113439;27;20027;-66
2021/07/05 07:36:19;;;;;;;16.45;5.65;;;;;;;;;;5132073;27;20057;-66
2021/07/05 07:38:47;;;;;;;13.43;4.88;;;;;;;;;;5103051;28;20023;-65
2021/07/05 07:41:19;;;;;;;15.20;5.10;;;;;;;;;;5090699;28;20169;-66
2021/07/05 07:43:45;;;;;;;16.08;4.53;;;;;;;;;;5111161;28;20023;-66
2021/07/05 07:46:11;;;;;;;15.70;4.85;;;;;;;;;;5093512;28;20015;-66
2021/07/05 07:48:37;;;;;;;15.35;5.13;;;;;;;;;;5092562;28;20066;-65
2021/07/05 07:51:03;;;;;;;13.23;4.75;;;;;;;;;;5107939;28;20086;-66
2021/07/05 07:53:29;;;;;;;15.00;5.05;;;;;;;;;;5093035;28;20035;-66
2021/07/05 07:55:55;;;;;;;12.68;4.30;;;;;;;;;;5092882;28;20402;-66
2021/07/05 07:58:22;;;;;;;12.73;4.50;;;;;;;;;;5111633;28;20073;-66
2021/07/05 08:00:48;;;;;;;16.27;5.07;;;;;;;;;;5107559;28;20625;-66
2021/07/05 08:03:14;;;;;;;12.93;5.03;;;;;;;;;;5092655;28;20059;-66
2021/07/05 08:05:40;;;;;;;14.05;4.32;;;;;;;;;;5110680;28;20023;-67
2021/07/05 08:08:08;;;;;;;15.85;5.03;;;;;;;;;;5111121;28;20035;-66
2021/07/05 08:10:34;;;;;;;14.63;5.30;;;;;;;;;;5108337;28;20027;-66
2021/07/05 08:13:02;;;;;;;17.10;4.43;;;;;;;;;;5076744;28;20028;-66
2021/07/05 08:15:28;;;;;;;14.23;5.10;;;;;;;;;;5110675;28;20032;-67
2021/07/05 08:17:55;;;;;;;15.25;5.30;;;;;;;;;;5110908;28;20072;-66
2021/07/05 08:20:21;;;;;;;13.82;5.28;;;;;;;;;;5086062;28;20028;-66
2021/07/05 08:22:51;;;;;;;17.52;6.18;;;;;;;;;;5115835;27;20039;-66
2021/07/05 08:25:17;;;;;;;19.25;5.93;;;;;;;;;;5110416;28;20031;-66
2021/07/05 08:27:43;;;;;;;18.33;4.78;;;;;;;;;;5110807;28;20020;-66
2021/07/05 08:30:09;;;;;;;19.98;4.82;;;;;;;;;;5107787;28;20016;-66
2021/07/05 08:32:36;;;;;;;16.15;5.38;;;;;;;;;;5110694;28;20032;-66
2021/07/05 08:35:02;;;;;;;18.00;5.25;;;;;;;;;;5110858;28;20023;-66
2021/07/05 08:37:28;;;;;;;14.23;4.68;;;;;;;;;;5110954;28;20069;-65
2021/07/05 08:39:54;;;;;;;16.35;4.72;;;;;;;;;;5088619;28;20031;-66
2021/07/05 08:42:24;;;;;;;13.48;5.78;;;;;;;;;;5111011;28;20046;-66
2021/07/05 08:44:50;;;;;;;12.80;5.22;;;;;;;;;;5110564;28;20020;-66
2021/07/05 08:47:18;;;;;;;15.02;4.78;;;;;;;;;;5110646;28;20487;-66
2021/07/05 08:49:48;;;;;;;18.80;5.53;;;;;;;;;;5088979;28;20020;-66
2021/07/05 08:52:14;;;;;;;14.98;3.97;;;;;;;;;;5110667;28;20511;-65
2021/07/05 08:54:40;;;;;;;14.02;4.35;;;;;;;;;;5110487;28;20394;-66
2021/07/05 08:57:06;;;;;;;10.70;4.47;;;;;;;;;;5110636;28;20050;-65
2021/07/05 08:59:33;;;;;;;14.50;4.22;;;;;;;;;;5107624;28;20047;-66
2021/07/05 09:01:59;;;;;;;16.67;4.57;;;;;;;;;;5110380;28;20027;-66
2021/07/05 09:04:25;;;;;;;10.07;3.83;;;;;;;;;;5110716;28;20089;-66
2021/07/05 09:07:01;;;;;;;8.32;3.25;;;;;;;;;;5110309;28;20027;-66
2021/07/05 09:09:27;;;;;;;7.15;3.78;;;;;;;;;;5107176;28;20039;-66
2021/07/05 09:11:53;;;;;;;17.17;4.07;;;;;;;;;;5110010;28;20406;-66
2021/07/05 09:14:23;;;;;;;17.33;4.38;;;;;;;;;;5110872;28;20024;-66
2021/07/05 09:16:51;;;;;;;16.60;4.18;;;;;;;;;;5109264;28;20038;-66
2021/07/05 09:19:21;;;;;;;17.00;5.43;;;;;;;;;;5107985;28;20543;-66
2021/07/05 09:21:48;;;;;;;13.48;4.45;;;;;;;;;;5113129;27;20028;-67
2021/07/05 09:24:14;;;;;;;11.30;4.03;;;;;;;;;;5113740;28;20038;-67
2021/07/05 09:26:41;;;;;;;15.95;4.20;;;;;;;;;;5113863;28;20073;-67
2021/07/05 09:29:18;;;;;;;9.13;3.78;;;;;;;;;;5090820;28;20023;-66
2021/07/05 09:31:44;;;;;;;13.73;5.10;;;;;;;;;;5113236;27;20106;-66
2021/07/05 09:34:19;;;;;;;14.75;3.65;;;;;;;;;;5094024;28;20394;-67
2021/07/05 09:36:45;;;;;;;10.55;3.17;;;;;;;;;;5093876;28;20028;-66
2021/07/05 09:39:17;;;;;;;9.23;3.45;;;;;;;;;;5110660;28;20055;-67
2021/07/05 09:41:43;;;;;;;11.00;3.15;;;;;;;;;;5112013;28;20031;-66
2021/07/05 09:44:17;;;;;;;9.68;3.40;;;;;;;;;;5110528;28;20020;-67
2021/07/05 09:46:49;;;;;;;7.65;3.08;;;;;;;;;;5111487;28;20023;-66
2021/07/05 09:49:19;;;;;;;8.25;3.08;;;;;;;;;;5086559;28;20024;-67
2021/07/05 09:51:47;;;;;;;6.32;2.58;;;;;;;;;;5110869;28;20047;-66
2021/07/05 09:54:23;;;;;;;9.07;3.05;;;;;;;;;;5094723;28;20114;-66
2021/07/05 09:56:52;;;;;;;10.90;3.47;;;;;;;;;;5112573;28;20051;-67
2021/07/05 09:59:20;;;;;;;10.02;3.03;;;;;;;;;;5092214;28;20296;-66
2021/07/05 10:01:47;;;;;;;13.13;2.92;;;;;;;;;;5092813;28;20112;-67
2021/07/05 10:04:16;;;;;;;8.63;3.00;;;;;;;;;;5093019;28;20142;-67
2021/07/05 10:06:47;;;;;;;7.60;2.80;;;;;;;;;;5092856;28;20023;-67
2021/07/05 10:09:17;;;;;;;8.02;2.97;;;;;;;;;;5101436;28;20091;-67
2021/07/05 10:11:43;;;;;;;9.57;2.65;;;;;;;;;;5108455;28;20112;-67
2021/07/05 10:14:13;;;;;;;8.52;3.17;;;;;;;;;;5107204;28;20383;-66
2021/07/05 10:16:39;;;;;;;7.00;2.38;;;;;;;;;;5112931;28;20184;-67
2021/07/05 10:19:05;;;;;;;9.75;2.50;;;;;;;;;;5110426;28;20035;-67
2021/07/05 10:21:31;;;;;;;8.13;2.45;;;;;;;;;;5113325;27;20046;-67
2021/07/05 10:23:57;;;;;;;9.43;2.47;;;;;;;;;;5109242;28;20034;-66
2021/07/05 10:26:23;;;;;;;8.75;2.35;;;;;;;;;;5112578;28;20107;-66
2021/07/05 10:28:49;;;;;;;7.75;2.28;;;;;;;;;;5111736;28;20037;-67
2021/07/05 10:31:16;;;;;;;7.78;2.35;;;;;;;;;;5110598;28;20019;-66
2021/07/05 10:33:42;;;;;;;8.10;2.58;;;;;;;;;;5112564;28;20008;-67
2021/07/05 10:36:10;;;;;;;8.88;2.72;;;;;;;;;;5112767;28;20023;-67
2021/07/05 10:38:42;;;;;;;8.27;2.22;;;;;;;;;;5111722;28;20008;-67
2021/07/05 10:41:11;;;;;;;7.47;2.28;;;;;;;;;;5090814;28;20410;-67
2021/07/05 10:43:45;;;;;;;6.05;2.38;;;;;;;;;;5094010;28;20104;-66
2021/07/05 10:46:11;;;;;;;10.65;3.67;;;;;;;;;;5112230;28;20574;-67
2021/07/05 10:48:42;;;;;;;11.15;2.53;;;;;;;;;;5112207;28;20051;-67
2021/07/05 10:51:16;;;;;;;5.70;2.50;;;;;;;;;;5108920;28;20096;-67
2021/07/05 10:53:43;;;;;;;5.90;2.00;;;;;;;;;;5112341;28;20019;-67
2021/07/05 10:56:26;;;;;;;6.60;2.00;;;;;;;;;;5112271;28;20020;-67
2021/07/05 10:58:52;;;;;;;7.32;2.05;;;;;;;;;;5111053;28;20517;-67
2021/07/05 11:01:35;;;;;;;9.25;2.00;;;;;;;;;;5110042;28;20024;-67
2021/07/05 11:04:17;;;;;;;7.93;2.22;;;;;;;;;;5093875;28;20035;-67
2021/07/05 11:06:43;;;;;;;8.13;3.10;;;;;;;;;;5110752;28;20012;-67
2021/07/05 11:09:09;;;;;;;9.45;2.45;;;;;;;;;;5089931;28;20329;-67
2021/07/05 11:11:36;;;;;;;8.80;2.28;;;;;;;;;;5093205;28;20024;-66
2021/07/05 11:14:14;;;;;;;8.50;2.50;;;;;;;;;;5111699;28;20122;-66
2021/07/05 11:16:58;;;;;;;14.10;3.00;;;;;;;;;;5111083;28;20018;-66
2021/07/05 11:19:32;;;;;;;13.07;3.25;;;;;;;;;;5108073;28;20026;-67
2021/07/05 11:22:00;;;;;;;7.43;2.42;;;;;;;;;;5092753;28;20057;-67
2021/07/05 11:24:32;;;;;;;14.15;3.42;;;;;;;;;;5108907;28;20269;-66
2021/07/05 11:27:18;;;;;;;11.27;2.80;;;;;;;;;;5093054;28;20024;-67
2021/07/05 11:29:45;;;;;;;7.40;3.13;;;;;;;;;;5089957;28;20023;-66
2021/07/05 11:32:12;;;;;;;12.48;4.78;;;;;;;;;;5109653;28;20390;-66
2021/07/05 11:34:40;;;;;;;6.28;2.47;;;;;;;;;;5086950;28;20235;-66
2021/07/05 11:37:18;;;;;;;7.50;2.70;;;;;;;;;;5110535;28;20031;-66
2021/07/05 11:39:46;;;;;;;7.45;2.90;;;;;;;;;;5107193;28;20031;-66
2021/07/05 11:42:13;;;;;;;8.95;2.50;;;;;;;;;;5110946;28;20051;-66
2021/07/05 11:44:47;;;;;;;6.63;2.72;;;;;;;;;;5092120;28;20156;-66
2021/07/05 11:47:33;;;;;;;10.10;2.75;;;;;;;;;;5088895;28;20102;-66
2021/07/05 11:50:20;;;;;;;7.25;3.08;;;;;;;;;;5087480;28;20066;-66
2021/07/05 11:52:47;;;;;;;8.27;2.35;;;;;;;;;;5106866;28;20032;-66
2021/07/05 11:55:14;;;;;;;9.35;2.35;;;;;;;;;;5110831;28;20028;-66
2021/07/05 11:57:46;;;;;;;9.15;2.30;;;;;;;;;;5093391;28;20234;-66
2021/07/05 12:00:12;;;;;;;8.10;2.40;;;;;;;;;;5108231;28;20023;-66
2021/07/05 12:02:38;;;;;;;6.00;2.10;;;;;;;;;;5110199;28;20032;-66
2021/07/05 12:05:08;;;;;;;6.22;2.08;;;;;;;;;;5110230;28;20047;-66
2021/07/05 12:07:34;;;;;;;3.70;1.67;;;;;;;;;;5110606;28;20028;-66
2021/07/05 12:10:01;;;;;;;3.95;1.85;;;;;;;;;;5107743;28;20027;-66
2021/07/05 12:12:30;;;;;;;6.53;1.83;;;;;;;;;;5110773;28;20050;-66
2021/07/05 12:14:56;;;;;;;7.53;1.83;;;;;;;;;;5111030;28;20027;-66
2021/07/05 12:17:22;;;;;;;6.20;1.60;;;;;;;;;;5110454;28;20020;-66
2021/07/05 12:19:52;;;;;;;7.07;2.00;;;;;;;;;;5107857;28;20038;-66
2021/07/05 12:22:20;;;;;;;7.10;2.08;;;;;;;;;;5111050;28;20053;-66
2021/07/05 12:25:01;;;;;;;8.38;2.25;;;;;;;;;;5110007;28;20028;-66
2021/07/05 12:27:29;;;;;;;4.05;1.90;;;;;;;;;;5110941;28;20054;-66
2021/07/05 12:30:00;;;;;;;6.28;1.95;;;;;;;;;;5107203;28;20403;-66
2021/07/05 12:32:34;;;;;;;7.03;1.70;;;;;;;;;;5102011;28;20019;-65
2021/07/05 12:35:11;;;;;;;6.07;1.73;;;;;;;;;;5091894;28;20031;-66
2021/07/05 12:37:37;;;;;;;4.90;1.73;;;;;;;;;;5110798;28;20232;-66
2021/07/05 12:40:06;;;;;;;5.50;1.50;;;;;;;;;;5107754;28;20027;-66
2021/07/05 12:42:43;;;;;;;4.05;1.60;;;;;;;;;;5109595;28;20030;-65
2021/07/05 12:45:09;;;;;;;5.80;1.65;;;;;;;;;;5091034;28;20224;-66
2021/07/05 12:47:49;;;;;;;4.55;1.70;;;;;;;;;;5106162;28;20020;-65
2021/07/05 12:50:17;;;;;;;7.03;1.75;;;;;;;;;;5083776;28;20040;-65
2021/07/05 12:52:59;;;;;;;4.03;1.58;;;;;;;;;;5092710;28;20085;-65
2021/07/05 12:55:25;;;;;;;7.18;1.77;;;;;;;;;;5092312;28;20032;-65
2021/07/05 12:57:52;;;;;;;5.32;1.70;;;;;;;;;;5090068;28;20073;-65
2021/07/05 13:00:19;;;;;;;3.30;1.30;;;;;;;;;;5090278;28;20499;-66
2021/07/05 13:02:45;;;;;;;6.00;2.03;;;;;;;;;;5089361;28;20024;-65
2021/07/05 13:05:13;;;;;;;3.88;1.92;;;;;;;;;;5089339;28;20016;-65
2021/07/05 13:07:40;;;;;;;5.78;2.03;;;;;;;;;;5088837;28;20027;-65
2021/07/05 13:10:07;;;;;;;7.10;2.17;;;;;;;;;;5089660;28;20047;-65
2021/07/05 13:12:34;;;;;;;6.15;2.05;;;;;;;;;;5092826;28;20043;-65
2021/07/05 13:15:16;;;;;;;5.18;1.95;;;;;;;;;;5088923;28;20032;-65
2021/07/05 13:17:43;;;;;;;3.75;1.80;;;;;;;;;;5088864;28;20685;-65
2021/07/05 13:20:14;;;;;;;5.63;1.80;;;;;;;;;;5089761;28;20512;-65
2021/07/05 13:22:59;;;;;;;6.13;1.90;;;;;;;;;;5090289;28;20034;-66
2021/07/05 13:25:25;;;;;;;5.63;2.15;;;;;;;;;;5091898;28;20031;-65
2021/07/05 13:27:53;;;;;;;5.72;1.80;;;;;;;;;;5091386;28;20035;-65
2021/07/05 13:30:23;;;;;;;5.88;2.08;;;;;;;;;;5087358;28;20467;-65
2021/07/05 13:32:55;;;;;;;3.97;1.80;;;;;;;;;;5092516;28;20048;-65
2021/07/05 13:35:29;;;;;;;6.40;2.17;;;;;;;;;;5088149;28;20116;-66
2021/07/05 13:37:58;;;;;;;4.88;2.00;;;;;;;;;;5089303;28;20044;-65
2021/07/05 13:40:24;;;;;;;6.30;1.88;;;;;;;;;;5086621;28;20507;-65
2021/07/05 13:42:52;;;;;;;4.55;1.77;;;;;;;;;;5092714;28;20031;-65
2021/07/05 13:45:22;;;;;;;5.70;1.77;;;;;;;;;;5092390;28;20081;-65
2021/07/05 13:47:49;;;;;;;6.20;2.28;;;;;;;;;;5089034;28;20116;-65
2021/07/05 13:50:16;;;;;;;6.13;1.65;;;;;;;;;;5093471;28;20050;-65
2021/07/05 13:52:46;;;;;;;6.97;1.70;;;;;;;;;;5113004;28;20426;-65
2021/07/05 13:55:22;;;;;;;4.65;1.48;;;;;;;;;;5112173;28;20066;-65
2021/07/05 13:57:48;;;;;;;6.35;1.35;;;;;;;;;;5111058;28;20305;-65
2021/07/05 14:00:14;;;;;;;5.53;1.70;;;;;;;;;;5109281;28;20032;-66
2021/07/05 14:02:41;;;;;;;4.85;1.65;;;;;;;;;;5108522;28;20023;-65
2021/07/05 14:05:20;;;;;;;4.70;1.67;;;;;;;;;;5093320;28;20035;-65
2021/07/05 14:07:46;;;;;;;4.32;1.45;;;;;;;;;;5109505;28;20495;-66
2021/07/05 14:10:13;;;;;;;6.18;2.10;;;;;;;;;;5090075;27;20030;-66
2021/07/05 14:12:39;;;;;;;6.00;1.75;;;;;;;;;;5111610;27;20048;-66
2021/07/05 14:15:08;;;;;;;5.90;1.70;;;;;;;;;;5095785;28;20158;-66
2021/07/05 14:17:34;;;;;;;4.35;1.63;;;;;;;;;;5094291;28;20020;-66
2021/07/05 14:20:00;;;;;;;4.07;1.15;;;;;;;;;;5104518;28;20096;-65
2021/07/05 14:22:26;;;;;;;5.68;1.90;;;;;;;;;;5111864;28;20028;-66
2021/07/05 14:24:52;;;;;;;4.93;1.65;;;;;;;;;;5112339;28;20031;-65
2021/07/05 14:27:18;;;;;;;4.50;1.55;;;;;;;;;;5112338;28;20026;-66
2021/07/05 14:29:44;;;;;;;2.85;0.93;;;;;;;;;;5104546;28;20023;-65
2021/07/05 14:32:10;;;;;;;3.30;1.20;;;;;;;;;;5083938;28;20028;-65
2021/07/05 14:34:36;;;;;;;3.42;1.40;;;;;;;;;;5094409;28;20024;-65
2021/07/05 14:37:03;;;;;;;3.38;1.30;;;;;;;;;;5093735;28;20031;-65